createdAt,value
2022-09-26T00:00:42.238Z,1.73
2022-09-26T00:03:53.776Z,2.78
2022-09-26T00:07:01.770Z,2.00
2022-09-26T00:10:10.422Z,1.38
2022-09-26T00:13:18.334Z,1.50
2022-09-26T00:16:26.262Z,2.38
2022-09-26T00:19:35.426Z,1.45
2022-09-26T00:22:43.327Z,1.48
2022-09-26T00:25:51.987Z,1.33
2022-09-26T00:29:00.058Z,2.00
2022-09-26T00:32:07.835Z,1.50
2022-09-26T00:35:17.452Z,3.38
2022-09-26T00:38:25.618Z,1.25
2022-09-26T00:41:33.632Z,2.97
2022-09-26T00:44:49.557Z,1.30
2022-09-26T00:47:59.586Z,1.40
2022-09-26T00:51:08.842Z,4.72
2022-09-26T00:54:18.636Z,2.00
2022-09-26T00:57:29.072Z,1.50
2022-09-26T01:00:37.583Z,1.70
2022-09-26T01:03:45.555Z,1.58
2022-09-26T01:06:54.705Z,2.42
2022-09-26T01:10:03.738Z,1.38
2022-09-26T01:13:13.056Z,1.38
2022-09-26T01:16:20.925Z,4.07
2022-09-26T01:19:33.740Z,2.65
2022-09-26T01:23:17.246Z,2.50
2022-09-26T01:26:48.704Z,1.73
2022-09-26T01:30:09.719Z,1.60
2022-09-26T01:33:46.613Z,1.30
2022-09-26T01:37:03.335Z,4.00
2022-09-26T01:40:14.949Z,2.03
2022-09-26T01:43:25.365Z,1.35
2022-09-26T01:46:37.266Z,1.50
2022-09-26T01:49:49.492Z,1.40
2022-09-26T01:53:00.801Z,1.33
2022-09-26T01:56:10.755Z,1.52
2022-09-26T01:59:21.128Z,1.90
2022-09-26T02:02:35.972Z,2.10
2022-09-26T02:05:44.836Z,2.30
2022-09-26T02:08:54.943Z,1.42
2022-09-26T02:12:05.771Z,3.28
2022-09-26T02:15:15.740Z,1.30
2022-09-26T02:18:27.438Z,1.40
2022-09-26T02:21:35.671Z,2.45
2022-09-26T02:24:43.770Z,0.90
2022-09-26T02:27:51.954Z,1.70
2022-09-26T02:31:01.243Z,1.33
2022-09-26T02:34:11.803Z,1.38
2022-09-26T02:37:20.776Z,1.23
2022-09-26T02:40:31.766Z,1.05
2022-09-26T02:43:44.750Z,1.45
2022-09-26T02:47:23.939Z,2.25
2022-09-26T02:50:40.310Z,2.38
2022-09-26T02:53:59.497Z,2.90
2022-09-26T02:57:24.838Z,2.05
2022-09-26T03:00:37.262Z,1.30
2022-09-26T03:03:47.792Z,1.23
2022-09-26T03:06:59.583Z,0.93
2022-09-26T03:10:08.250Z,1.40
2022-09-26T03:13:17.154Z,1.27
2022-09-26T03:16:26.298Z,1.17
2022-09-26T03:19:37.099Z,1.02
2022-09-26T03:22:47.937Z,1.60
2022-09-26T03:26:01.447Z,1.30
2022-09-26T03:29:11.175Z,1.10
2022-09-26T03:32:19.029Z,0.80
2022-09-26T03:35:26.942Z,1.02
2022-09-26T03:38:36.514Z,2.30
2022-09-26T03:41:59.181Z,0.95
2022-09-26T03:45:10.419Z,0.95
2022-09-26T03:48:38.235Z,1.15
2022-09-26T03:51:46.640Z,1.13
2022-09-26T03:54:56.112Z,1.23
2022-09-26T03:58:04.385Z,1.98
2022-09-26T04:01:19.388Z,1.25
2022-09-26T04:04:28.043Z,2.03
2022-09-26T04:07:36.133Z,1.02
2022-09-26T04:10:45.498Z,1.13
2022-09-26T04:13:54.686Z,1.52
2022-09-26T04:17:07.937Z,1.10
2022-09-26T04:20:20.458Z,0.98
2022-09-26T04:23:29.774Z,1.00
2022-09-26T04:26:40.079Z,1.55
2022-09-26T04:29:47.879Z,0.82
2022-09-26T04:33:05.078Z,0.80
2022-09-26T04:36:14.526Z,2.08
2022-09-26T04:39:23.119Z,1.08
2022-09-26T04:42:36.923Z,3.10
2022-09-26T04:45:45.712Z,5.47
2022-09-26T04:48:56.166Z,1.60
2022-09-26T04:52:04.472Z,2.13
2022-09-26T04:55:12.981Z,5.82
2022-09-26T04:58:22.654Z,3.80
2022-09-26T05:01:30.796Z,5.57
2022-09-26T05:04:51.445Z,2.33
2022-09-26T05:07:59.918Z,0.70
2022-09-26T05:11:09.252Z,1.55
2022-09-26T05:14:18.806Z,1.80
2022-09-26T05:17:28.315Z,0.80
2022-09-26T05:20:45.426Z,1.30
2022-09-26T05:24:10.949Z,1.33
2022-09-26T05:27:19.117Z,0.70
2022-09-26T05:30:32.135Z,0.40
2022-09-26T05:33:40.142Z,1.45
2022-09-26T05:36:48.259Z,1.65
2022-09-26T05:40:13.859Z,6.18
2022-09-26T05:43:27.967Z,0.90
2022-09-26T05:46:40.570Z,0.73
2022-09-26T05:49:52.080Z,1.65
2022-09-26T05:53:02.514Z,0.70
2022-09-26T05:56:13.724Z,1.05
2022-09-26T05:59:49.875Z,1.42
2022-09-26T06:03:19.711Z,0.70
2022-09-26T06:06:44.571Z,1.20
2022-09-26T06:09:57.672Z,1.52
2022-09-26T06:13:15.792Z,0.70
2022-09-26T06:16:33.765Z,1.52
2022-09-26T06:19:43.070Z,1.90
2022-09-26T06:22:50.946Z,2.72
2022-09-26T06:25:59.196Z,1.58
2022-09-26T06:29:07.523Z,1.10
2022-09-26T06:32:17.637Z,0.70
2022-09-26T06:36:02.634Z,1.52
2022-09-26T06:39:17.834Z,1.77
2022-09-26T06:42:27.994Z,1.77
2022-09-26T06:45:54.530Z,0.60
2022-09-26T06:49:07.871Z,0.70
2022-09-26T06:52:44.066Z,0.60
2022-09-26T06:55:52.137Z,1.20
2022-09-26T06:58:59.998Z,0.60
2022-09-26T07:02:13.804Z,0.60
2022-09-26T07:05:38.294Z,0.75
2022-09-26T07:09:02.332Z,1.08
2022-09-26T07:12:40.806Z,0.50
2022-09-26T07:15:50.496Z,1.05
2022-09-26T07:19:21.935Z,1.10
2022-09-26T07:22:43.370Z,0.95
2022-09-26T07:25:53.196Z,0.80
2022-09-26T07:29:01.727Z,1.15
2022-09-26T07:32:11.226Z,1.20
2022-09-26T07:35:31.081Z,0.98
2022-09-26T07:38:39.130Z,1.38
2022-09-26T07:41:49.042Z,1.63
2022-09-26T07:48:45.064Z,0.70
2022-09-26T07:52:12.091Z,1.23
2022-09-26T07:56:05.715Z,0.77
2022-09-26T07:59:35.217Z,0.88
2022-09-26T08:03:04.821Z,2.72
2022-09-26T08:06:17.677Z,0.90
2022-09-26T08:09:25.784Z,0.60
2022-09-26T08:12:52.376Z,1.10
2022-09-26T08:16:23.473Z,1.60
2022-09-26T08:19:34.643Z,1.35
2022-09-26T08:22:43.190Z,0.77
2022-09-26T08:25:53.615Z,1.08
2022-09-26T08:29:14.733Z,0.68
2022-09-26T08:32:27.076Z,0.73
2022-09-26T08:35:38.725Z,0.88
2022-09-26T08:39:05.560Z,1.75
2022-09-26T08:46:18.230Z,2.13
2022-09-26T08:49:49.094Z,0.77
2022-09-26T08:52:59.002Z,1.20
2022-09-26T08:56:07.947Z,1.30
2022-09-26T08:59:22.132Z,1.65
2022-09-26T09:02:34.192Z,0.47
2022-09-26T09:05:49.240Z,1.15
2022-09-26T09:08:57.611Z,1.35
2022-09-26T09:12:10.861Z,1.40
2022-09-26T09:15:26.302Z,1.88
2022-09-26T09:19:08.534Z,1.55
2022-09-26T09:22:54.654Z,1.75
2022-09-26T09:29:50.858Z,1.33
2022-09-26T09:33:19.410Z,0.65
2022-09-26T09:36:47.099Z,0.77
2022-09-26T09:40:02.429Z,0.88
2022-09-26T09:43:26.031Z,1.00
2022-09-26T09:46:35.746Z,1.20
2022-09-26T09:49:44.263Z,1.17
2022-09-26T09:52:55.461Z,0.70
2022-09-26T09:56:10.644Z,1.00
2022-09-26T09:59:36.372Z,1.50
2022-09-26T10:02:52.620Z,0.90
2022-09-26T10:06:04.998Z,1.02
2022-09-26T10:13:09.016Z,0.75
2022-09-26T10:16:35.871Z,1.48
2022-09-26T10:19:49.226Z,0.73
2022-09-26T10:22:57.885Z,1.02
2022-09-26T10:26:10.707Z,1.55
2022-09-26T10:29:25.604Z,1.05
2022-09-26T10:32:34.635Z,1.00
2022-09-26T10:36:08.950Z,0.68
2022-09-26T10:39:36.958Z,1.55
2022-09-26T10:42:47.283Z,0.75
2022-09-26T10:46:00.667Z,1.23
2022-09-26T10:49:30.920Z,1.92
2022-09-26T10:53:02.964Z,1.13
2022-09-26T10:56:12.981Z,0.80
2022-09-26T10:59:25.279Z,0.90
2022-09-26T11:02:34.876Z,1.75
2022-09-26T11:05:59.335Z,0.80
2022-09-26T11:09:11.108Z,0.90
2022-09-26T11:12:42.258Z,0.80
2022-09-26T11:16:01.310Z,1.20
2022-09-26T11:19:15.282Z,1.45
2022-09-26T11:22:26.820Z,1.10
2022-09-26T11:25:42.481Z,0.97
2022-09-26T11:28:52.983Z,1.25
2022-09-26T11:32:13.813Z,2.25
2022-09-26T11:35:53.293Z,1.40
2022-09-26T11:39:04.337Z,1.00
2022-09-26T11:42:17.825Z,1.30
2022-09-26T11:45:33.691Z,1.58
2022-09-26T11:49:33.589Z,0.70
2022-09-26T11:53:08.374Z,1.80
2022-09-26T11:56:32.038Z,1.48
2022-09-26T12:00:06.196Z,1.77
2022-09-26T12:03:49.978Z,1.13
2022-09-26T12:07:01.874Z,1.23
2022-09-26T12:10:17.677Z,2.80
2022-09-26T12:13:34.405Z,0.88
2022-09-26T12:16:45.627Z,2.47
2022-09-26T12:19:57.538Z,2.63
2022-09-26T12:23:10.489Z,0.73
2022-09-26T12:26:22.187Z,1.42
2022-09-26T12:29:33.965Z,1.63
2022-09-26T12:32:56.526Z,1.25
2022-09-26T12:36:07.405Z,1.65
2022-09-26T12:39:24.580Z,2.17
2022-09-26T12:42:45.663Z,1.48
2022-09-26T12:46:21.472Z,1.08
2022-09-26T12:49:36.102Z,1.52
2022-09-26T12:53:22.370Z,1.27
2022-09-26T12:56:39.425Z,2.53
2022-09-26T13:00:09.364Z,1.52
2022-09-26T13:03:48.742Z,1.02
2022-09-26T13:07:20.521Z,1.20
2022-09-26T13:10:37.902Z,1.05
2022-09-26T13:14:15.661Z,1.08
2022-09-26T13:17:25.765Z,5.05
2022-09-26T13:20:36.369Z,1.95
2022-09-26T13:23:46.857Z,2.13
2022-09-26T13:26:57.441Z,1.63
2022-09-26T13:30:08.113Z,1.45
2022-09-26T13:33:20.695Z,1.27
2022-09-26T13:36:30.394Z,1.30
2022-09-26T13:39:41.953Z,2.78
2022-09-26T13:42:51.750Z,1.20
2022-09-26T13:46:02.396Z,0.95
2022-09-26T13:49:27.686Z,0.80
2022-09-26T13:52:46.752Z,0.90
2022-09-26T13:56:41.219Z,0.90
2022-09-26T13:59:54.208Z,2.10
2022-09-26T14:03:45.820Z,1.73
2022-09-26T14:07:34.327Z,0.88
2022-09-26T14:10:43.239Z,2.22
2022-09-26T14:14:05.785Z,1.25
2022-09-26T14:20:47.835Z,0.90
2022-09-26T14:24:29.281Z,2.08
2022-09-26T14:27:47.463Z,0.88
2022-09-26T14:31:43.951Z,2.03
2022-09-26T14:34:56.144Z,1.40
2022-09-26T14:38:04.968Z,1.30
2022-09-26T14:41:18.399Z,1.45
2022-09-26T14:44:27.486Z,4.50
2022-09-26T14:47:40.302Z,1.98
2022-09-26T14:50:50.765Z,1.20
2022-09-26T14:54:00.377Z,1.60
2022-09-26T14:57:21.027Z,1.42
2022-09-26T15:00:39.328Z,1.60
2022-09-26T15:03:53.593Z,1.00
2022-09-26T15:07:03.632Z,0.80
2022-09-26T15:10:23.515Z,1.25
2022-09-26T15:13:35.550Z,0.95
2022-09-26T15:16:47.755Z,1.20
2022-09-26T15:19:55.907Z,0.85
2022-09-26T15:23:02.602Z,1.25
2022-09-26T15:26:09.865Z,1.02
2022-09-26T15:29:18.106Z,0.90
2022-09-26T15:32:26.614Z,1.80
2022-09-26T15:35:33.261Z,5.20
2022-09-26T15:38:28.861Z,3.00
2022-09-26T15:41:52.699Z,2.42
2022-09-26T15:45:01.258Z,4.20
2022-09-26T15:48:27.318Z,3.88
2022-09-26T15:51:39.233Z,41.53
2022-09-26T15:54:46.096Z,32.95
2022-09-26T15:57:55.415Z,45.75
2022-09-26T16:01:03.511Z,35.38
2022-09-26T16:04:16.207Z,33.30
2022-09-26T16:10:31.339Z,28.75
2022-09-26T16:13:39.977Z,27.25
2022-09-26T16:16:48.200Z,23.13
2022-09-26T16:19:55.600Z,22.63
2022-09-26T16:23:05.339Z,21.60
2022-09-26T16:26:24.822Z,14.35
2022-09-26T16:29:32.824Z,18.75
2022-09-26T16:32:41.069Z,13.02
2022-09-26T16:35:48.309Z,16.75
2022-09-26T16:38:56.585Z,10.90
2022-09-26T16:42:05.960Z,12.60
2022-09-26T16:45:14.909Z,10.60
2022-09-26T16:48:35.873Z,10.18
2022-09-26T16:51:42.439Z,8.63
2022-09-26T16:54:49.354Z,8.32
2022-09-26T16:57:56.930Z,11.80
2022-09-26T17:01:22.065Z,8.43
2022-09-26T17:04:31.262Z,9.63
2022-09-26T17:07:38.261Z,9.57
2022-09-26T17:10:45.046Z,5.72
2022-09-26T17:13:51.687Z,5.40
2022-09-26T17:17:00.129Z,9.20
2022-09-26T17:20:13.190Z,9.73
2022-09-26T17:23:39.244Z,7.28
2022-09-26T17:26:55.838Z,9.10
2022-09-26T17:30:03.764Z,13.02
2022-09-26T17:33:10.408Z,3.95
2022-09-26T17:36:00.413Z,5.72
2022-09-26T17:38:50.669Z,6.25
2022-09-26T17:41:59.157Z,5.95
2022-09-26T17:45:06.854Z,4.90
2022-09-26T17:48:15.510Z,6.32
2022-09-26T17:51:23.902Z,5.88
2022-09-26T17:54:32.182Z,3.88
2022-09-26T17:57:41.986Z,10.68
2022-09-26T18:00:49.352Z,7.00
2022-09-26T18:03:59.755Z,5.30
2022-09-26T18:07:09.805Z,8.65
2022-09-26T18:10:20.442Z,5.70
2022-09-26T18:13:30.412Z,5.18
2022-09-26T18:16:37.310Z,4.63
2022-09-26T18:19:44.275Z,4.25
2022-09-26T18:22:52.778Z,8.82
2022-09-26T18:25:59.955Z,4.72
2022-09-26T18:29:07.711Z,3.53
2022-09-26T18:32:19.842Z,8.07
2022-09-26T18:35:27.743Z,3.63
2022-09-26T18:38:26.300Z,4.43
2022-09-26T18:41:32.881Z,6.00
2022-09-26T18:44:39.820Z,5.78
2022-09-26T18:47:47.787Z,7.25
2022-09-26T18:50:44.950Z,4.18
2022-09-26T18:53:41.047Z,6.68
2022-09-26T18:57:04.935Z,3.90
2022-09-26T19:00:12.929Z,5.32
2022-09-26T19:03:21.073Z,4.15
2022-09-26T19:06:30.357Z,5.38
2022-09-26T19:09:32.855Z,5.00
2022-09-26T19:12:40.737Z,2.95
2022-09-26T19:15:47.661Z,2.78
2022-09-26T19:18:54.211Z,5.32
2022-09-26T19:22:02.048Z,5.00
2022-09-26T19:25:11.596Z,5.47
2022-09-26T19:28:22.374Z,4.60
2022-09-26T19:31:30.672Z,3.70
2022-09-26T19:34:37.407Z,4.88
2022-09-26T19:37:43.809Z,4.75
2022-09-26T19:40:53.605Z,3.08
2022-09-26T19:44:01.033Z,2.95
2022-09-26T19:47:07.563Z,6.05
2022-09-26T19:50:16.320Z,3.47
2022-09-26T19:53:20.705Z,4.80
2022-09-26T19:56:28.601Z,3.42
2022-09-26T19:59:17.317Z,3.17
2022-09-26T20:02:26.095Z,3.42
2022-09-26T20:05:32.960Z,2.17
2022-09-26T20:08:37.262Z,4.13
2022-09-26T20:11:45.354Z,4.32
2022-09-26T20:14:52.308Z,3.70
2022-09-26T20:18:00.328Z,5.97
2022-09-26T20:21:06.944Z,2.67
2022-09-26T20:24:15.043Z,1.90
2022-09-26T20:27:25.857Z,2.60
2022-09-26T20:30:32.655Z,3.65
2022-09-26T20:33:39.576Z,3.80
2022-09-26T20:36:47.477Z,1.63
2022-09-26T20:39:53.981Z,1.48
2022-09-26T20:43:05.414Z,2.88
2022-09-26T20:46:11.933Z,2.83
2022-09-26T20:49:20.616Z,1.58
2022-09-26T20:52:28.251Z,2.90
2022-09-26T20:55:34.733Z,3.38
2022-09-26T20:58:23.849Z,1.95
2022-09-26T21:01:30.664Z,2.55
2022-09-26T21:04:37.322Z,2.20
2022-09-26T21:07:44.285Z,2.40
2022-09-26T21:10:52.126Z,2.25
2022-09-26T21:14:00.284Z,1.65
2022-09-26T21:17:08.868Z,3.03
2022-09-26T21:20:14.052Z,1.55
2022-09-26T21:23:41.975Z,2.85
2022-09-26T21:26:48.534Z,3.05
2022-09-26T21:29:56.390Z,1.77
2022-09-26T21:33:02.918Z,2.72
2022-09-26T21:36:09.815Z,1.52
2022-09-26T21:39:03.776Z,3.55
2022-09-26T21:42:10.272Z,5.13
2022-09-26T21:45:20.494Z,4.35
2022-09-26T21:48:28.586Z,1.50
2022-09-26T21:51:35.196Z,2.50
2022-09-26T21:54:24.909Z,1.25
2022-09-26T21:57:34.445Z,3.25
2022-09-26T22:00:42.572Z,1.00
2022-09-26T22:03:49.115Z,2.15
2022-09-26T22:06:55.800Z,2.33
2022-09-26T22:10:02.594Z,1.95
2022-09-26T22:13:09.927Z,1.58
2022-09-26T22:16:18.080Z,5.75
2022-09-26T22:19:25.150Z,3.50
2022-09-26T22:22:32.066Z,2.47
2022-09-26T22:25:42.835Z,1.75
2022-09-26T22:28:50.109Z,1.30
2022-09-26T22:31:39.485Z,1.77
2022-09-26T22:34:34.052Z,2.53
2022-09-26T22:37:42.043Z,1.80
2022-09-26T22:40:57.082Z,1.83
2022-09-26T22:44:03.988Z,1.60
2022-09-26T22:47:12.234Z,1.58
2022-09-26T22:50:18.864Z,4.70
2022-09-26T22:53:25.509Z,2.00
2022-09-26T22:56:32.447Z,0.80
2022-09-26T22:59:39.338Z,1.33
2022-09-26T23:02:28.440Z,1.65
2022-09-26T23:05:35.340Z,1.40
2022-09-26T23:08:41.818Z,3.65
2022-09-26T23:11:29.776Z,1.23
2022-09-26T23:14:36.348Z,3.35
2022-09-26T23:17:44.220Z,1.27
2022-09-26T23:20:50.874Z,1.92
2022-09-26T23:23:58.275Z,1.92
2022-09-26T23:27:04.932Z,1.55
2022-09-26T23:30:12.740Z,1.70
2022-09-26T23:33:20.936Z,1.10
2022-09-26T23:36:27.561Z,1.20
2022-09-26T23:39:34.485Z,4.22
2022-09-26T23:42:41.204Z,1.70
2022-09-26T23:45:49.806Z,0.95
2022-09-26T23:48:57.674Z,1.52
2022-09-26T23:51:47.560Z,2.63
2022-09-26T23:54:54.639Z,1.75
2022-09-26T23:58:01.978Z,1.00
